sensor_id;sensor_type;location;lat;lon;timestamp;temperature;humidity
6118;DHT22;3089;48.202;11.510;2023-06-14T00:02:06;18.20;88.10
6118;DHT22;3089;48.202;11.510;2023-06-14T00:04:35;18.20;88.20
6118;DHT22;3089;48.202;11.510;2023-06-14T00:07:05;18.10;88.20
6118;DHT22;3089;48.202;11.510;2023-06-14T00:09:34;18.10;88.30
6118;DHT22;3089;48.202;11.510;2023-06-14T00:12:04;18.00;88.40
6118;DHT22;3089;48.202;11.510;2023-06-14T00:14:33;18.00;88.50
6118;DHT22;3089;48.202;11.510;2023-06-14T00:17:01;18.00;88.60
6118;DHT22;3089;48.202;11.510;2023-06-14T00:19:30;18.00;88.80
6118;DHT22;3089;48.202;11.510;2023-06-14T00:22:02;17.90;88.80
6118;DHT22;3089;48.202;11.510;2023-06-14T00:24:29;17.90;88.90
6118;DHT22;3089;48.202;11.510;2023-06-14T00:26:57;17.80;88.90
6118;DHT22;3089;48.202;11.510;2023-06-14T00:29:27;17.90;89.10
6118;DHT22;3089;48.202;11.510;2023-06-14T00:31:55;17.90;89.20
6118;DHT22;3089;48.202;11.510;2023-06-14T00:34:22;17.80;89.20
6118;DHT22;3089;48.202;11.510;2023-06-14T00:36:50;17.80;89.40
6118;DHT22;3089;48.202;11.510;2023-06-14T00:39:18;17.70;89.40
6118;DHT22;3089;48.202;11.510;2023-06-14T00:41:46;17.60;89.40
6118;DHT22;3089;48.202;11.510;2023-06-14T00:44:17;17.60;89.70
6118;DHT22;3089;48.202;11.510;2023-06-14T00:46:46;17.60;89.80
6118;DHT22;3089;48.202;11.510;2023-06-14T00:49:16;17.50;89.90
6118;DHT22;3089;48.202;11.510;2023-06-14T00:51:45;17.50;90.00
6118;DHT22;3089;48.202;11.510;2023-06-14T00:54:13;17.50;90.00
6118;DHT22;3089;48.202;11.510;2023-06-14T00:56:42;17.40;90.00
6118;DHT22;3089;48.202;11.510;2023-06-14T00:59:11;17.40;90.10
6118;DHT22;3089;48.202;11.510;2023-06-14T01:01:39;17.40;90.20
6118;DHT22;3089;48.202;11.510;2023-06-14T01:04:08;17.40;90.20
6118;DHT22;3089;48.202;11.510;2023-06-14T01:06:47;17.30;90.20
6118;DHT22;3089;48.202;11.510;2023-06-14T01:09:23;17.30;90.20
6118;DHT22;3089;48.202;11.510;2023-06-14T01:11:59;17.30;90.30
6118;DHT22;3089;48.202;11.510;2023-06-14T01:16:59;17.20;90.20
6118;DHT22;3089;48.202;11.510;2023-06-14T01:19:30;17.30;90.30
6118;DHT22;3089;48.202;11.510;2023-06-14T01:22:01;17.20;90.20
6118;DHT22;3089;48.202;11.510;2023-06-14T01:24:31;17.20;90.30
6118;DHT22;3089;48.202;11.510;2023-06-14T01:27:02;17.10;90.30
6118;DHT22;3089;48.202;11.510;2023-06-14T01:29:30;17.10;90.40
6118;DHT22;3089;48.202;11.510;2023-06-14T01:32:00;17.00;90.40
6118;DHT22;3089;48.202;11.510;2023-06-14T01:34:28;17.10;90.50
6118;DHT22;3089;48.202;11.510;2023-06-14T01:36:56;17.10;90.50
6118;DHT22;3089;48.202;11.510;2023-06-14T01:39:25;17.00;90.50
6118;DHT22;3089;48.202;11.510;2023-06-14T01:41:55;16.90;90.50
6118;DHT22;3089;48.202;11.510;2023-06-14T01:44:24;16.80;90.60
6118;DHT22;3089;48.202;11.510;2023-06-14T01:46:53;16.90;90.70
6118;DHT22;3089;48.202;11.510;2023-06-14T01:49:21;17.00;90.70
6118;DHT22;3089;48.202;11.510;2023-06-14T01:51:49;16.90;90.70
6118;DHT22;3089;48.202;11.510;2023-06-14T01:54:17;16.80;90.80
6118;DHT22;3089;48.202;11.510;2023-06-14T01:56:44;16.70;90.80
6118;DHT22;3089;48.202;11.510;2023-06-14T01:59:14;16.60;90.90
6118;DHT22;3089;48.202;11.510;2023-06-14T02:01:42;16.60;91.00
6118;DHT22;3089;48.202;11.510;2023-06-14T02:04:11;16.60;91.00
6118;DHT22;3089;48.202;11.510;2023-06-14T02:06:38;16.50;91.00
6118;DHT22;3089;48.202;11.510;2023-06-14T02:09:06;16.50;91.00
6118;DHT22;3089;48.202;11.510;2023-06-14T02:11:34;16.50;91.10
6118;DHT22;3089;48.202;11.510;2023-06-14T02:14:02;16.50;91.10
6118;DHT22;3089;48.202;11.510;2023-06-14T02:16:31;16.50;91.50
6118;DHT22;3089;48.202;11.510;2023-06-14T02:19:02;16.50;91.10
6118;DHT22;3089;48.202;11.510;2023-06-14T02:21:30;16.50;91.10
6118;DHT22;3089;48.202;11.510;2023-06-14T02:23:58;16.50;91.10
6118;DHT22;3089;48.202;11.510;2023-06-14T02:26:26;16.50;91.20
6118;DHT22;3089;48.202;11.510;2023-06-14T02:28:55;16.50;91.20
6118;DHT22;3089;48.202;11.510;2023-06-14T02:31:23;16.40;91.20
6118;DHT22;3089;48.202;11.510;2023-06-14T02:33:52;16.30;91.30
6118;DHT22;3089;48.202;11.510;2023-06-14T02:36:20;16.20;91.40
6118;DHT22;3089;48.202;11.510;2023-06-14T02:38:48;16.20;91.40
6118;DHT22;3089;48.202;11.510;2023-06-14T02:41:16;16.20;91.50
6118;DHT22;3089;48.202;11.510;2023-06-14T02:43:44;16.10;91.50
6118;DHT22;3089;48.202;11.510;2023-06-14T02:46:12;16.10;91.90
6118;DHT22;3089;48.202;11.510;2023-06-14T02:48:40;16.10;91.60
6118;DHT22;3089;48.202;11.510;2023-06-14T02:51:09;16.10;91.60
6118;DHT22;3089;48.202;11.510;2023-06-14T02:53:37;16.10;91.90
6118;DHT22;3089;48.202;11.510;2023-06-14T02:56:05;16.10;91.60
6118;DHT22;3089;48.202;11.510;2023-06-14T02:58:32;16.10;91.60
6118;DHT22;3089;48.202;11.510;2023-06-14T03:01:00;16.10;91.60
6118;DHT22;3089;48.202;11.510;2023-06-14T03:03:30;16.00;91.60
6118;DHT22;3089;48.202;11.510;2023-06-14T03:05:58;15.90;91.70
6118;DHT22;3089;48.202;11.510;2023-06-14T03:08:32;15.90;91.80
6118;DHT22;3089;48.202;11.510;2023-06-14T03:11:06;15.90;91.90
6118;DHT22;3089;48.202;11.510;2023-06-14T03:13:34;15.90;91.90
6118;DHT22;3089;48.202;11.510;2023-06-14T03:16:02;15.80;91.90
6118;DHT22;3089;48.202;11.510;2023-06-14T03:18:30;15.90;91.90
6118;DHT22;3089;48.202;11.510;2023-06-14T03:21:02;15.80;91.90
6118;DHT22;3089;48.202;11.510;2023-06-14T03:23:31;15.80;92.00
6118;DHT22;3089;48.202;11.510;2023-06-14T03:25:59;15.80;92.00
6118;DHT22;3089;48.202;11.510;2023-06-14T03:28:27;15.70;92.00
6118;DHT22;3089;48.202;11.510;2023-06-14T03:30:55;15.70;92.10
6118;DHT22;3089;48.202;11.510;2023-06-14T03:33:23;15.70;92.20
6118;DHT22;3089;48.202;11.510;2023-06-14T03:35:51;15.60;92.20
6118;DHT22;3089;48.202;11.510;2023-06-14T03:38:19;15.60;92.30
6118;DHT22;3089;48.202;11.510;2023-06-14T03:40:49;15.60;92.20
6118;DHT22;3089;48.202;11.510;2023-06-14T03:43:16;15.60;92.20
6118;DHT22;3089;48.202;11.510;2023-06-14T03:45:44;15.60;92.30
6118;DHT22;3089;48.202;11.510;2023-06-14T03:48:12;15.50;92.30
6118;DHT22;3089;48.202;11.510;2023-06-14T03:50:41;15.50;92.40
6118;DHT22;3089;48.202;11.510;2023-06-14T03:53:09;15.50;92.40
6118;DHT22;3089;48.202;11.510;2023-06-14T03:55:37;15.50;92.40
6118;DHT22;3089;48.202;11.510;2023-06-14T03:58:27;15.50;92.50
6118;DHT22;3089;48.202;11.510;2023-06-14T04:00:55;15.50;92.50
6118;DHT22;3089;48.202;11.510;2023-06-14T04:03:23;15.50;92.60
6118;DHT22;3089;48.202;11.510;2023-06-14T04:05:51;15.50;92.50
6118;DHT22;3089;48.202;11.510;2023-06-14T04:08:23;15.50;92.60
6118;DHT22;3089;48.202;11.510;2023-06-14T04:10:51;15.40;92.70
6118;DHT22;3089;48.202;11.510;2023-06-14T04:13:19;15.30;92.70
6118;DHT22;3089;48.202;11.510;2023-06-14T04:15:48;15.40;92.80
6118;DHT22;3089;48.202;11.510;2023-06-14T04:18:16;15.40;92.70
6118;DHT22;3089;48.202;11.510;2023-06-14T04:20:47;15.40;92.80
6118;DHT22;3089;48.202;11.510;2023-06-14T04:23:17;15.30;92.80
6118;DHT22;3089;48.202;11.510;2023-06-14T04:25:45;15.30;92.90
6118;DHT22;3089;48.202;11.510;2023-06-14T04:28:14;15.40;92.90
6118;DHT22;3089;48.202;11.510;2023-06-14T04:30:42;15.40;92.90
6118;DHT22;3089;48.202;11.510;2023-06-14T04:33:12;15.40;92.90
6118;DHT22;3089;48.202;11.510;2023-06-14T04:35:42;15.40;92.80
6118;DHT22;3089;48.202;11.510;2023-06-14T04:38:13;15.40;92.90
6118;DHT22;3089;48.202;11.510;2023-06-14T04:40:42;15.40;93.00
6118;DHT22;3089;48.202;11.510;2023-06-14T04:43:10;15.30;93.00
6118;DHT22;3089;48.202;11.510;2023-06-14T04:45:39;15.30;93.10
6118;DHT22;3089;48.202;11.510;2023-06-14T04:48:13;15.40;93.00
6118;DHT22;3089;48.202;11.510;2023-06-14T04:50:40;16.50;92.30
6118;DHT22;3089;48.202;11.510;2023-06-14T04:53:09;17.80;91.00
6118;DHT22;3089;48.202;11.510;2023-06-14T04:55:37;18.30;90.20
6118;DHT22;3089;48.202;11.510;2023-06-14T04:58:05;18.60;89.90
6118;DHT22;3089;48.202;11.510;2023-06-14T05:00:33;18.80;89.50
6118;DHT22;3089;48.202;11.510;2023-06-14T05:03:01;19.00;89.20
6118;DHT22;3089;48.202;11.510;2023-06-14T05:05:30;19.20;88.30
6118;DHT22;3089;48.202;11.510;2023-06-14T05:07:59;19.30;88.20
6118;DHT22;3089;48.202;11.510;2023-06-14T05:10:27;19.40;88.30
6118;DHT22;3089;48.202;11.510;2023-06-14T05:12:55;19.60;87.80
6118;DHT22;3089;48.202;11.510;2023-06-14T05:15:23;19.80;87.00
6118;DHT22;3089;48.202;11.510;2023-06-14T05:17:52;20.10;89.50
6118;DHT22;3089;48.202;11.510;2023-06-14T05:20:22;20.30;87.70
6118;DHT22;3089;48.202;11.510;2023-06-14T05:22:53;20.20;87.40
6118;DHT22;3089;48.202;11.510;2023-06-14T05:25:21;20.60;86.30
6118;DHT22;3089;48.202;11.510;2023-06-14T05:27:49;20.90;86.80
6118;DHT22;3089;48.202;11.510;2023-06-14T05:30:17;21.10;85.60
6118;DHT22;3089;48.202;11.510;2023-06-14T05:32:45;21.40;86.50
6118;DHT22;3089;48.202;11.510;2023-06-14T05:35:13;21.50;88.20
6118;DHT22;3089;48.202;11.510;2023-06-14T05:37:41;21.20;86.00
6118;DHT22;3089;48.202;11.510;2023-06-14T05:40:11;21.40;85.50
6118;DHT22;3089;48.202;11.510;2023-06-14T05:42:39;21.50;86.90
6118;DHT22;3089;48.202;11.510;2023-06-14T05:45:08;21.50;85.70
6118;DHT22;3089;48.202;11.510;2023-06-14T05:47:35;22.10;85.10
6118;DHT22;3089;48.202;11.510;2023-06-14T05:50:04;21.00;89.20
6118;DHT22;3089;48.202;11.510;2023-06-14T05:52:33;20.90;89.70
6118;DHT22;3089;48.202;11.510;2023-06-14T05:55:01;21.20;87.00
6118;DHT22;3089;48.202;11.510;2023-06-14T05:57:30;22.20;86.90
6118;DHT22;3089;48.202;11.510;2023-06-14T05:59:58;21.80;86.30
6118;DHT22;3089;48.202;11.510;2023-06-14T06:02:26;20.80;89.00
6118;DHT22;3089;48.202;11.510;2023-06-14T06:04:53;20.80;87.50
6118;DHT22;3089;48.202;11.510;2023-06-14T06:07:22;22.20;86.10
6118;DHT22;3089;48.202;11.510;2023-06-14T06:09:50;21.30;85.80
6118;DHT22;3089;48.202;11.510;2023-06-14T06:12:18;21.00;88.00
6118;DHT22;3089;48.202;11.510;2023-06-14T06:14:47;22.40;85.60
6118;DHT22;3089;48.202;11.510;2023-06-14T06:17:15;20.90;84.50
6118;DHT22;3089;48.202;11.510;2023-06-14T06:19:43;22.50;85.40
6118;DHT22;3089;48.202;11.510;2023-06-14T06:22:11;20.90;83.70
6118;DHT22;3089;48.202;11.510;2023-06-14T06:24:39;22.10;84.30
6118;DHT22;3089;48.202;11.510;2023-06-14T06:27:08;23.00;83.60
6118;DHT22;3089;48.202;11.510;2023-06-14T06:29:37;23.10;84.20
6118;DHT22;3089;48.202;11.510;2023-06-14T06:32:07;23.80;83.90
6118;DHT22;3089;48.202;11.510;2023-06-14T06:34:35;24.20;83.00
6118;DHT22;3089;48.202;11.510;2023-06-14T06:37:04;21.70;80.30
6118;DHT22;3089;48.202;11.510;2023-06-14T06:39:32;22.60;84.10
6118;DHT22;3089;48.202;11.510;2023-06-14T06:42:00;23.90;82.30
6118;DHT22;3089;48.202;11.510;2023-06-14T06:44:28;24.30;82.00
6118;DHT22;3089;48.202;11.510;2023-06-14T06:46:57;23.60;83.80
6118;DHT22;3089;48.202;11.510;2023-06-14T06:49:26;22.80;78.90
6118;DHT22;3089;48.202;11.510;2023-06-14T06:52:01;23.00;84.30
6118;DHT22;3089;48.202;11.510;2023-06-14T06:54:29;24.10;82.60
6118;DHT22;3089;48.202;11.510;2023-06-14T06:56:57;24.40;80.40
6118;DHT22;3089;48.202;11.510;2023-06-14T06:59:25;24.70;82.90
6118;DHT22;3089;48.202;11.510;2023-06-14T07:01:53;25.10;82.20
6118;DHT22;3089;48.202;11.510;2023-06-14T07:04:21;25.10;82.30
6118;DHT22;3089;48.202;11.510;2023-06-14T07:06:50;24.90;80.50
6118;DHT22;3089;48.202;11.510;2023-06-14T07:09:18;23.60;78.00
6118;DHT22;3089;48.202;11.510;2023-06-14T07:11:47;24.50;79.70
6118;DHT22;3089;48.202;11.510;2023-06-14T07:14:15;24.30;82.30
6118;DHT22;3089;48.202;11.510;2023-06-14T07:16:43;23.10;78.50
6118;DHT22;3089;48.202;11.510;2023-06-14T07:19:11;25.50;80.90
6118;DHT22;3089;48.202;11.510;2023-06-14T07:21:39;24.90;81.20
6118;DHT22;3089;48.202;11.510;2023-06-14T07:24:08;25.30;80.70
6118;DHT22;3089;48.202;11.510;2023-06-14T07:26:37;26.00;80.50
6118;DHT22;3089;48.202;11.510;2023-06-14T07:29:04;26.90;78.10
6118;DHT22;3089;48.202;11.510;2023-06-14T07:31:32;26.70;78.20
6118;DHT22;3089;48.202;11.510;2023-06-14T07:34:00;23.30;75.90
6118;DHT22;3089;48.202;11.510;2023-06-14T07:36:28;23.90;83.10
6118;DHT22;3089;48.202;11.510;2023-06-14T07:38:56;24.10;76.20
6118;DHT22;3089;48.202;11.510;2023-06-14T07:41:25;24.20;76.50
6118;DHT22;3089;48.202;11.510;2023-06-14T07:43:53;25.20;78.50
6118;DHT22;3089;48.202;11.510;2023-06-14T07:46:21;24.30;78.30
6118;DHT22;3089;48.202;11.510;2023-06-14T07:48:49;22.10;82.20
6118;DHT22;3089;48.202;11.510;2023-06-14T07:51:18;21.70;86.00
6118;DHT22;3089;48.202;11.510;2023-06-14T07:53:46;20.30;85.30
6118;DHT22;3089;48.202;11.510;2023-06-14T07:56:14;20.50;83.50
6118;DHT22;3089;48.202;11.510;2023-06-14T07:58:43;21.20;87.60
6118;DHT22;3089;48.202;11.510;2023-06-14T08:01:11;22.10;86.40
6118;DHT22;3089;48.202;11.510;2023-06-14T08:03:39;21.30;82.20
6118;DHT22;3089;48.202;11.510;2023-06-14T08:06:07;20.10;84.70
6118;DHT22;3089;48.202;11.510;2023-06-14T08:08:35;21.20;85.20
6118;DHT22;3089;48.202;11.510;2023-06-14T08:11:03;21.70;85.60
6118;DHT22;3089;48.202;11.510;2023-06-14T08:13:31;21.80;85.40
6118;DHT22;3089;48.202;11.510;2023-06-14T08:16:00;21.70;79.20
6118;DHT22;3089;48.202;11.510;2023-06-14T08:18:31;21.60;81.70
6118;DHT22;3089;48.202;11.510;2023-06-14T08:20:59;20.80;82.70
6118;DHT22;3089;48.202;11.510;2023-06-14T08:23:27;20.90;85.30
6118;DHT22;3089;48.202;11.510;2023-06-14T08:25:55;20.50;78.20
6118;DHT22;3089;48.202;11.510;2023-06-14T08:28:24;20.30;80.40
6118;DHT22;3089;48.202;11.510;2023-06-14T08:30:52;20.80;84.80
6118;DHT22;3089;48.202;11.510;2023-06-14T08:33:21;20.80;81.30
6118;DHT22;3089;48.202;11.510;2023-06-14T08:35:49;21.90;81.40
6118;DHT22;3089;48.202;11.510;2023-06-14T08:38:17;21.20;81.50
6118;DHT22;3089;48.202;11.510;2023-06-14T08:40:45;21.60;81.20
6118;DHT22;3089;48.202;11.510;2023-06-14T08:43:15;22.40;79.90
6118;DHT22;3089;48.202;11.510;2023-06-14T08:45:43;21.70;81.30
6118;DHT22;3089;48.202;11.510;2023-06-14T08:48:13;22.10;82.10
6118;DHT22;3089;48.202;11.510;2023-06-14T08:50:47;21.60;78.20
6118;DHT22;3089;48.202;11.510;2023-06-14T08:53:20;23.50;76.10
6118;DHT22;3089;48.202;11.510;2023-06-14T08:55:48;23.90;76.60
6118;DHT22;3089;48.202;11.510;2023-06-14T08:58:17;24.60;78.60
6118;DHT22;3089;48.202;11.510;2023-06-14T09:00:46;24.00;78.60
6118;DHT22;3089;48.202;11.510;2023-06-14T09:03:14;24.60;79.00
6118;DHT22;3089;48.202;11.510;2023-06-14T09:05:45;23.00;73.80
6118;DHT22;3089;48.202;11.510;2023-06-14T09:08:13;22.20;80.00
6118;DHT22;3089;48.202;11.510;2023-06-14T09:10:42;22.40;75.40
6118;DHT22;3089;48.202;11.510;2023-06-14T09:13:12;23.30;75.90
6118;DHT22;3089;48.202;11.510;2023-06-14T09:15:40;23.50;73.90
6118;DHT22;3089;48.202;11.510;2023-06-14T09:18:08;24.10;72.90
6118;DHT22;3089;48.202;11.510;2023-06-14T09:20:37;24.70;80.00
6118;DHT22;3089;48.202;11.510;2023-06-14T09:23:06;25.10;76.60
6118;DHT22;3089;48.202;11.510;2023-06-14T09:25:42;24.60;70.50
6118;DHT22;3089;48.202;11.510;2023-06-14T09:28:11;24.80;75.40
6118;DHT22;3089;48.202;11.510;2023-06-14T09:30:39;24.20;71.90
6118;DHT22;3089;48.202;11.510;2023-06-14T09:33:07;24.70;66.40
6118;DHT22;3089;48.202;11.510;2023-06-14T09:35:36;24.30;67.20
6118;DHT22;3089;48.202;11.510;2023-06-14T09:38:04;24.70;72.90
6118;DHT22;3089;48.202;11.510;2023-06-14T09:40:35;24.40;76.60
6118;DHT22;3089;48.202;11.510;2023-06-14T09:43:06;24.90;77.80
6118;DHT22;3089;48.202;11.510;2023-06-14T09:45:35;25.30;78.40
6118;DHT22;3089;48.202;11.510;2023-06-14T09:48:04;24.50;76.90
6118;DHT22;3089;48.202;11.510;2023-06-14T09:50:34;24.60;76.70
6118;DHT22;3089;48.202;11.510;2023-06-14T09:53:05;24.40;77.60
6118;DHT22;3089;48.202;11.510;2023-06-14T09:55:37;25.00;78.50
6118;DHT22;3089;48.202;11.510;2023-06-14T09:58:06;25.00;77.00
6118;DHT22;3089;48.202;11.510;2023-06-14T10:00:36;24.70;78.60
6118;DHT22;3089;48.202;11.510;2023-06-14T10:03:11;24.80;78.70
6118;DHT22;3089;48.202;11.510;2023-06-14T10:05:43;24.10;79.00
6118;DHT22;3089;48.202;11.510;2023-06-14T10:08:14;24.80;76.90
6118;DHT22;3089;48.202;11.510;2023-06-14T10:10:45;24.90;76.00
6118;DHT22;3089;48.202;11.510;2023-06-14T10:13:13;25.20;78.20
6118;DHT22;3089;48.202;11.510;2023-06-14T10:15:49;24.90;77.60
6118;DHT22;3089;48.202;11.510;2023-06-14T10:18:21;24.70;77.90
6118;DHT22;3089;48.202;11.510;2023-06-14T10:20:58;24.70;79.30
6118;DHT22;3089;48.202;11.510;2023-06-14T10:23:33;24.00;72.20
6118;DHT22;3089;48.202;11.510;2023-06-14T10:26:03;23.80;73.00
6118;DHT22;3089;48.202;11.510;2023-06-14T10:28:31;24.70;77.20
6118;DHT22;3089;48.202;11.510;2023-06-14T10:31:07;24.90;69.80
6118;DHT22;3089;48.202;11.510;2023-06-14T10:33:36;24.60;70.40
6118;DHT22;3089;48.202;11.510;2023-06-14T10:36:16;24.00;72.00
6118;DHT22;3089;48.202;11.510;2023-06-14T10:39:01;24.30;74.90
6118;DHT22;3089;48.202;11.510;2023-06-14T10:41:34;24.00;72.60
6118;DHT22;3089;48.202;11.510;2023-06-14T10:44:33;23.90;70.40
6118;DHT22;3089;48.202;11.510;2023-06-14T10:47:01;22.60;70.70
6118;DHT22;3089;48.202;11.510;2023-06-14T10:49:43;23.40;73.90
6118;DHT22;3089;48.202;11.510;2023-06-14T10:52:13;22.60;70.40
6118;DHT22;3089;48.202;11.510;2023-06-14T10:55:00;22.50;76.90
6118;DHT22;3089;48.202;11.510;2023-06-14T10:57:32;22.70;72.80
6118;DHT22;3089;48.202;11.510;2023-06-14T11:00:12;23.20;70.00
6118;DHT22;3089;48.202;11.510;2023-06-14T11:05:45;23.00;68.70
6118;DHT22;3089;48.202;11.510;2023-06-14T11:08:37;23.40;74.90
6118;DHT22;3089;48.202;11.510;2023-06-14T11:11:07;24.00;75.90
6118;DHT22;3089;48.202;11.510;2023-06-14T11:13:38;24.00;74.00
6118;DHT22;3089;48.202;11.510;2023-06-14T11:16:13;24.70;75.50
6118;DHT22;3089;48.202;11.510;2023-06-14T11:18:42;23.40;74.20
6118;DHT22;3089;48.202;11.510;2023-06-14T11:21:10;24.10;73.80
6118;DHT22;3089;48.202;11.510;2023-06-14T11:23:37;23.40;71.90
6118;DHT22;3089;48.202;11.510;2023-06-14T11:26:05;23.50;74.10
6118;DHT22;3089;48.202;11.510;2023-06-14T11:28:38;23.50;78.00
6118;DHT22;3089;48.202;11.510;2023-06-14T11:31:07;24.30;74.60
6118;DHT22;3089;48.202;11.510;2023-06-14T11:33:35;24.00;71.50
6118;DHT22;3089;48.202;11.510;2023-06-14T11:36:05;23.00;70.40
6118;DHT22;3089;48.202;11.510;2023-06-14T11:38:35;23.40;72.50
6118;DHT22;3089;48.202;11.510;2023-06-14T11:41:04;23.20;73.10
6118;DHT22;3089;48.202;11.510;2023-06-14T11:43:32;22.90;75.70
6118;DHT22;3089;48.202;11.510;2023-06-14T11:46:03;23.30;68.50
6118;DHT22;3089;48.202;11.510;2023-06-14T11:48:37;23.50;73.60
6118;DHT22;3089;48.202;11.510;2023-06-14T11:51:05;24.10;75.80
6118;DHT22;3089;48.202;11.510;2023-06-14T11:53:33;24.30;73.30
6118;DHT22;3089;48.202;11.510;2023-06-14T11:56:02;25.20;77.00
6118;DHT22;3089;48.202;11.510;2023-06-14T11:58:30;24.40;75.60
6118;DHT22;3089;48.202;11.510;2023-06-14T12:00:58;24.90;76.80
6118;DHT22;3089;48.202;11.510;2023-06-14T12:03:28;25.30;75.30
6118;DHT22;3089;48.202;11.510;2023-06-14T12:06:04;24.00;73.60
6118;DHT22;3089;48.202;11.510;2023-06-14T12:08:33;23.90;74.50
6118;DHT22;3089;48.202;11.510;2023-06-14T12:11:06;23.30;75.70
6118;DHT22;3089;48.202;11.510;2023-06-14T12:13:37;23.50;76.80
6118;DHT22;3089;48.202;11.510;2023-06-14T12:16:07;24.30;77.90
6118;DHT22;3089;48.202;11.510;2023-06-14T12:18:38;24.20;77.60
6118;DHT22;3089;48.202;11.510;2023-06-14T12:21:06;23.50;73.90
6118;DHT22;3089;48.202;11.510;2023-06-14T12:23:43;23.60;76.00
6118;DHT22;3089;48.202;11.510;2023-06-14T12:26:13;23.50;74.70
6118;DHT22;3089;48.202;11.510;2023-06-14T12:28:41;23.10;75.10
6118;DHT22;3089;48.202;11.510;2023-06-14T12:31:11;23.50;73.20
6118;DHT22;3089;48.202;11.510;2023-06-14T12:33:41;23.20;73.10
6118;DHT22;3089;48.202;11.510;2023-06-14T12:36:10;23.50;75.60
6118;DHT22;3089;48.202;11.510;2023-06-14T12:38:38;23.70;72.20
6118;DHT22;3089;48.202;11.510;2023-06-14T12:41:06;24.60;74.00
6118;DHT22;3089;48.202;11.510;2023-06-14T12:43:34;25.10;77.60
6118;DHT22;3089;48.202;11.510;2023-06-14T12:46:02;25.30;77.50
6118;DHT22;3089;48.202;11.510;2023-06-14T12:48:30;25.20;78.00
6118;DHT22;3089;48.202;11.510;2023-06-14T12:50:59;25.10;78.10
6118;DHT22;3089;48.202;11.510;2023-06-14T12:53:27;25.10;74.60
6118;DHT22;3089;48.202;11.510;2023-06-14T12:55:55;25.50;76.10
6118;DHT22;3089;48.202;11.510;2023-06-14T12:58:23;25.10;77.40
6118;DHT22;3089;48.202;11.510;2023-06-14T13:00:51;25.00;76.40
6118;DHT22;3089;48.202;11.510;2023-06-14T13:03:19;23.40;70.90
6118;DHT22;3089;48.202;11.510;2023-06-14T13:05:47;23.60;73.70
6118;DHT22;3089;48.202;11.510;2023-06-14T13:08:16;23.60;74.10
6118;DHT22;3089;48.202;11.510;2023-06-14T13:10:44;24.60;75.60
6118;DHT22;3089;48.202;11.510;2023-06-14T13:13:12;24.70;67.00
6118;DHT22;3089;48.202;11.510;2023-06-14T13:15:40;24.40;69.90
6118;DHT22;3089;48.202;11.510;2023-06-14T13:18:08;25.10;70.50
6118;DHT22;3089;48.202;11.510;2023-06-14T13:20:38;25.00;69.90
6118;DHT22;3089;48.202;11.510;2023-06-14T13:23:06;24.70;76.00
6118;DHT22;3089;48.202;11.510;2023-06-14T13:25:36;24.70;77.00
6118;DHT22;3089;48.202;11.510;2023-06-14T13:28:05;24.90;77.00
6118;DHT22;3089;48.202;11.510;2023-06-14T13:30:33;24.60;73.40
6118;DHT22;3089;48.202;11.510;2023-06-14T13:33:01;24.30;70.80
6118;DHT22;3089;48.202;11.510;2023-06-14T13:35:29;25.00;76.60
6118;DHT22;3089;48.202;11.510;2023-06-14T13:37:57;25.20;74.20
6118;DHT22;3089;48.202;11.510;2023-06-14T13:40:25;25.10;75.30
6118;DHT22;3089;48.202;11.510;2023-06-14T13:42:54;25.20;70.10
6118;DHT22;3089;48.202;11.510;2023-06-14T13:45:22;22.30;69.10
6118;DHT22;3089;48.202;11.510;2023-06-14T13:47:50;25.50;71.40
6118;DHT22;3089;48.202;11.510;2023-06-14T13:50:18;25.20;73.60
6118;DHT22;3089;48.202;11.510;2023-06-14T13:52:46;24.50;68.50
6118;DHT22;3089;48.202;11.510;2023-06-14T13:55:14;24.80;70.10
6118;DHT22;3089;48.202;11.510;2023-06-14T13:57:42;24.80;73.20
6118;DHT22;3089;48.202;11.510;2023-06-14T14:00:12;24.60;70.60
6118;DHT22;3089;48.202;11.510;2023-06-14T14:02:41;25.60;75.70
6118;DHT22;3089;48.202;11.510;2023-06-14T14:05:09;25.70;74.00
6118;DHT22;3089;48.202;11.510;2023-06-14T14:07:37;25.90;76.10
6118;DHT22;3089;48.202;11.510;2023-06-14T14:10:07;25.20;72.20
6118;DHT22;3089;48.202;11.510;2023-06-14T14:12:35;24.30;70.40
6118;DHT22;3089;48.202;11.510;2023-06-14T14:15:06;24.50;72.80
6118;DHT22;3089;48.202;11.510;2023-06-14T14:17:40;25.10;71.40
6118;DHT22;3089;48.202;11.510;2023-06-14T14:20:10;25.80;74.50
6118;DHT22;3089;48.202;11.510;2023-06-14T14:22:39;25.30;66.40
6118;DHT22;3089;48.202;11.510;2023-06-14T14:25:08;24.80;65.40
6118;DHT22;3089;48.202;11.510;2023-06-14T14:27:36;24.80;67.80
6118;DHT22;3089;48.202;11.510;2023-06-14T14:30:05;25.20;73.10
6118;DHT22;3089;48.202;11.510;2023-06-14T14:32:33;25.10;74.80
6118;DHT22;3089;48.202;11.510;2023-06-14T14:35:03;25.50;75.20
6118;DHT22;3089;48.202;11.510;2023-06-14T14:37:31;25.30;73.30
6118;DHT22;3089;48.202;11.510;2023-06-14T14:39:59;25.20;75.20
6118;DHT22;3089;48.202;11.510;2023-06-14T14:42:26;24.60;76.30
6118;DHT22;3089;48.202;11.510;2023-06-14T14:44:54;24.90;73.20
6118;DHT22;3089;48.202;11.510;2023-06-14T14:47:22;24.70;67.30
6118;DHT22;3089;48.202;11.510;2023-06-14T14:49:50;24.60;72.50
6118;DHT22;3089;48.202;11.510;2023-06-14T14:52:19;24.30;68.90
6118;DHT22;3089;48.202;11.510;2023-06-14T14:54:50;24.70;72.70
6118;DHT22;3089;48.202;11.510;2023-06-14T14:57:18;25.30;70.80
6118;DHT22;3089;48.202;11.510;2023-06-14T14:59:46;25.10;71.90
6118;DHT22;3089;48.202;11.510;2023-06-14T15:02:14;24.60;70.70
6118;DHT22;3089;48.202;11.510;2023-06-14T15:04:42;24.40;72.90
6118;DHT22;3089;48.202;11.510;2023-06-14T15:07:09;24.40;72.30
6118;DHT22;3089;48.202;11.510;2023-06-14T15:09:39;24.70;73.10
6118;DHT22;3089;48.202;11.510;2023-06-14T15:12:08;24.40;72.20
6118;DHT22;3089;48.202;11.510;2023-06-14T15:14:37;24.20;75.40
6118;DHT22;3089;48.202;11.510;2023-06-14T15:17:05;24.70;72.30
6118;DHT22;3089;48.202;11.510;2023-06-14T15:19:34;24.30;73.40
6118;DHT22;3089;48.202;11.510;2023-06-14T15:22:03;24.10;70.70
6118;DHT22;3089;48.202;11.510;2023-06-14T15:24:32;23.90;69.60
6118;DHT22;3089;48.202;11.510;2023-06-14T15:27:11;23.70;74.70
6118;DHT22;3089;48.202;11.510;2023-06-14T15:29:41;24.30;76.60
6118;DHT22;3089;48.202;11.510;2023-06-14T15:32:09;24.30;74.60
6118;DHT22;3089;48.202;11.510;2023-06-14T15:34:37;23.40;72.40
6118;DHT22;3089;48.202;11.510;2023-06-14T15:37:06;23.10;72.40
6118;DHT22;3089;48.202;11.510;2023-06-14T15:39:35;23.20;73.50
6118;DHT22;3089;48.202;11.510;2023-06-14T15:42:03;23.50;70.40
6118;DHT22;3089;48.202;11.510;2023-06-14T15:44:32;23.50;71.70
6118;DHT22;3089;48.202;11.510;2023-06-14T15:47:00;23.90;74.80
6118;DHT22;3089;48.202;11.510;2023-06-14T15:49:28;23.60;69.50
6118;DHT22;3089;48.202;11.510;2023-06-14T15:51:56;24.10;68.40
6118;DHT22;3089;48.202;11.510;2023-06-14T15:54:24;24.20;73.60
6118;DHT22;3089;48.202;11.510;2023-06-14T15:56:52;24.00;72.30
6118;DHT22;3089;48.202;11.510;2023-06-14T15:59:20;23.80;76.10
6118;DHT22;3089;48.202;11.510;2023-06-14T16:01:49;23.50;74.00
6118;DHT22;3089;48.202;11.510;2023-06-14T16:04:17;23.50;76.00